Time;durP1;ratioP1;P1;durP2;ratioP2;P2;SDS_P1;SDS_P2;PMS_P1;PMS_P2;Temp;Humidity;BMP_temperature;BMP_pressure;BME280_temperature;BME280_humidity;BME280_pressure;Samples;Min_cycle;Max_cycle;Signal;HPM_P1;HPM_P2
2021/06/08 00:00:40;;;;;;;41.50;37.10;;;18.70;99.90;;;;;;5062963;28;20965;-88
2021/06/08 00:03:09;;;;;;;41.80;37.70;;;18.80;99.90;;;;;;5060504;28;20856;-88
2021/06/08 00:05:35;;;;;;;41.90;37.57;;;18.80;99.90;;;;;;5093560;28;20445;-88
2021/06/08 00:08:03;;;;;;;43.20;38.70;;;18.70;99.90;;;;;;5090808;28;20449;-88
2021/06/08 00:10:30;;;;;;;39.27;35.30;;;18.70;99.90;;;;;;5061916;28;20532;-87
2021/06/08 00:12:56;;;;;;;42.33;37.83;;;18.80;99.90;;;;;;5062027;28;21026;-88
2021/06/08 00:15:23;;;;;;;39.87;35.90;;;18.70;99.90;;;;;;5063335;28;20434;-88
2021/06/08 00:17:49;;;;;;;43.00;38.50;;;18.70;99.90;;;;;;5063871;28;20845;-88
2021/06/08 00:20:15;;;;;;;39.57;35.70;;;18.70;99.90;;;;;;5060909;28;20435;-88
2021/06/08 00:22:42;;;;;;;39.43;35.43;;;18.70;99.90;;;;;;5063526;28;20449;-88
2021/06/08 00:25:11;;;;;;;40.03;35.83;;;18.70;99.90;;;;;;5065800;28;20437;-87
2021/06/08 00:27:37;;;;;;;43.10;38.77;;;18.70;99.90;;;;;;5081854;28;20453;-88
2021/06/08 00:30:04;;;;;;;41.83;37.63;;;18.70;99.90;;;;;;5073583;28;20443;-88
2021/06/08 00:32:30;;;;;;;41.57;37.43;;;18.70;99.90;;;;;;5072057;28;20438;-88
2021/06/08 00:34:57;;;;;;;43.40;39.10;;;18.70;99.90;;;;;;5069340;28;20504;-88
2021/06/08 00:37:23;;;;;;;45.10;40.13;;;18.70;99.90;;;;;;5066462;28;20500;-88
2021/06/08 00:39:49;;;;;;;41.77;37.50;;;18.70;99.90;;;;;;5063548;28;20454;-88
2021/06/08 00:42:26;;;;;;;40.20;35.90;;;18.80;99.90;;;;;;5060864;28;20496;-88
2021/06/08 00:44:52;;;;;;;37.87;34.27;;;18.80;99.90;;;;;;5055058;28;20446;-87
2021/06/08 00:47:19;;;;;;;39.90;35.77;;;18.80;99.90;;;;;;5059932;28;20437;-87
2021/06/08 00:49:45;;;;;;;39.83;35.80;;;18.70;99.90;;;;;;5073617;28;20453;-87
2021/06/08 00:52:11;;;;;;;36.83;33.17;;;18.70;99.90;;;;;;5075218;28;20445;-89
2021/06/08 00:54:37;;;;;;;42.13;34.20;;;18.80;99.90;;;;;;5070400;28;20441;-89
2021/06/08 00:57:04;;;;;;;38.10;34.40;;;18.70;99.90;;;;;;5079543;28;20469;-89
2021/06/08 00:59:32;;;;;;;40.40;36.60;;;18.70;99.90;;;;;;5068916;28;20466;-89
2021/06/08 01:01:58;;;;;;;38.47;34.73;;;18.70;99.90;;;;;;5083949;28;20437;-87
2021/06/08 01:04:24;;;;;;;36.47;32.90;;;18.70;99.90;;;;;;5065949;28;20977;-88
2021/06/08 01:06:50;;;;;;;39.73;35.63;;;18.70;99.90;;;;;;5074049;28;20454;-87
2021/06/08 01:09:16;;;;;;;37.90;34.13;;;18.70;99.90;;;;;;5077155;28;20516;-88
2021/06/08 01:11:43;;;;;;;40.43;36.07;;;18.80;99.90;;;;;;5062190;28;20441;-87
2021/06/08 01:14:09;;;;;;;38.30;34.50;;;18.70;99.90;;;;;;5055777;28;20449;-87
2021/06/08 01:16:36;;;;;;;39.53;35.50;;;18.70;99.90;;;;;;5060940;28;20488;-87
2021/06/08 01:19:03;;;;;;;39.87;35.90;;;18.70;99.90;;;;;;5062145;28;20568;-87
2021/06/08 01:21:31;;;;;;;39.43;35.43;;;18.60;99.90;;;;;;5060837;28;20447;-87
2021/06/08 01:23:58;;;;;;;37.97;33.97;;;18.60;99.90;;;;;;5063976;28;20451;-87
2021/06/08 01:26:26;;;;;;;38.40;34.57;;;18.60;99.90;;;;;;5061061;28;20450;-87
2021/06/08 01:28:52;;;;;;;42.17;37.97;;;18.60;99.90;;;;;;5066883;28;20473;-87
2021/06/08 01:31:22;;;;;;;40.33;36.43;;;18.60;99.90;;;;;;5063590;28;20449;-87
2021/06/08 01:33:49;;;;;;;38.93;35.13;;;18.60;99.90;;;;;;5062628;28;20499;-89
2021/06/08 01:36:17;;;;;;;37.93;34.17;;;18.60;99.90;;;;;;5062003;28;20483;-88
2021/06/08 01:38:45;;;;;;;40.07;36.10;;;18.60;99.90;;;;;;5063780;28;20502;-89
2021/06/08 01:41:13;;;;;;;39.43;35.60;;;18.60;99.90;;;;;;5070065;28;20442;-88
2021/06/08 01:43:40;;;;;;;39.00;35.03;;;18.60;99.90;;;;;;5071612;28;20532;-89
2021/06/08 01:46:07;;;;;;;36.87;33.07;;;18.50;99.90;;;;;;5059832;28;20466;-88
2021/06/08 01:48:34;;;;;;;40.73;36.83;;;18.60;99.90;;;;;;5060268;28;20536;-88
2021/06/08 01:51:08;;;;;;;39.47;35.50;;;18.50;99.90;;;;;;5059979;28;20453;-89
2021/06/08 01:53:38;;;;;;;38.93;35.10;;;18.50;99.90;;;;;;5064625;28;20437;-88
2021/06/08 01:56:10;;;;;;;36.67;33.17;;;18.60;99.90;;;;;;5058847;28;20476;-88
2021/06/08 01:58:42;;;;;;;40.00;36.10;;;18.60;99.90;;;;;;5060366;28;20489;-88
2021/06/08 02:01:13;;;;;;;37.83;34.03;;;18.50;99.90;;;;;;5059084;28;20453;-88
2021/06/08 02:03:42;;;;;;;37.33;33.60;;;18.50;99.90;;;;;;5060932;28;20439;-88
2021/06/08 02:06:15;;;;;;;40.33;36.50;;;18.50;99.90;;;;;;5059685;28;20468;-88
2021/06/08 02:08:45;;;;;;;38.20;34.40;;;18.50;99.90;;;;;;5077435;28;20455;-89
2021/06/08 02:11:19;;;;;;;39.30;35.53;;;18.50;99.90;;;;;;5088309;28;20414;-88
2021/06/08 02:13:49;;;;;;;39.80;35.70;;;18.50;99.90;;;;;;5060694;28;20507;-88
2021/06/08 02:16:20;;;;;;;37.93;34.17;;;18.50;99.90;;;;;;5062078;28;20538;-88
2021/06/08 02:18:48;;;;;;;38.27;34.37;;;18.50;99.90;;;;;;5074979;28;20460;-88
2021/06/08 02:21:16;;;;;;;40.93;36.77;;;18.50;99.90;;;;;;5081770;28;20445;-88
2021/06/08 02:23:44;;;;;;;39.83;35.70;;;18.60;99.90;;;;;;5084697;28;20450;-89
2021/06/08 02:26:12;;;;;;;38.60;34.90;;;18.60;99.90;;;;;;5076251;28;20495;-88
2021/06/08 02:28:40;;;;;;;40.47;36.47;;;18.60;99.90;;;;;;5076247;28;20467;-88
2021/06/08 02:31:08;;;;;;;40.40;36.20;;;18.60;99.90;;;;;;5061860;28;20800;-88
2021/06/08 02:33:36;;;;;;;37.43;33.73;;;18.60;99.90;;;;;;5059531;28;20989;-88
2021/06/08 02:36:04;;;;;;;38.70;35.00;;;18.50;99.90;;;;;;5061762;28;20477;-88
2021/06/08 02:38:32;;;;;;;41.53;37.37;;;18.60;99.90;;;;;;5063433;28;20462;-89
2021/06/08 02:40:59;;;;;;;41.23;36.90;;;18.50;99.90;;;;;;5075824;28;20429;-87
2021/06/08 02:43:28;;;;;;;39.30;35.50;;;18.50;99.90;;;;;;5068083;28;20439;-89
2021/06/08 02:45:55;;;;;;;40.10;36.10;;;18.60;99.90;;;;;;5052408;28;20445;-88
2021/06/08 02:48:23;;;;;;;38.07;34.27;;;18.50;99.90;;;;;;5060795;28;20480;-88
2021/06/08 02:50:49;;;;;;;41.27;37.13;;;18.60;99.90;;;;;;5062353;28;20958;-89
2021/06/08 02:53:17;;;;;;;40.60;36.50;;;18.60;99.90;;;;;;5057907;28;20442;-88
2021/06/08 02:55:44;;;;;;;38.90;35.13;;;18.60;99.90;;;;;;5059822;28;20493;-89
2021/06/08 02:58:12;;;;;;;39.57;35.67;;;18.60;99.90;;;;;;5058801;28;20539;-89
2021/06/08 03:00:40;;;;;;;40.73;36.43;;;18.50;99.90;;;;;;5059332;28;20434;-89
2021/06/08 03:03:09;;;;;;;36.20;32.30;;;18.50;99.90;;;;;;5057364;28;20444;-89
2021/06/08 03:05:39;;;;;;;37.67;33.83;;;18.50;99.90;;;;;;5059906;28;20963;-88
2021/06/08 03:08:13;;;;;;;39.50;35.63;;;18.50;99.90;;;;;;5058727;28;20532;-89
2021/06/08 03:10:42;;;;;;;39.40;35.30;;;18.50;99.90;;;;;;5060934;28;20449;-89
2021/06/08 03:13:10;;;;;;;39.40;35.60;;;18.50;99.90;;;;;;5072186;28;20435;-89
2021/06/08 03:15:42;;;;;;;40.77;36.67;;;18.50;99.90;;;;;;5080069;28;20762;-89
2021/06/08 03:18:11;;;;;;;38.73;35.00;;;18.60;99.90;;;;;;5065037;28;20439;-88
2021/06/08 03:20:41;;;;;;;37.87;34.33;;;18.50;99.90;;;;;;5077114;28;20430;-89
2021/06/08 03:23:10;;;;;;;38.20;34.30;;;18.50;99.90;;;;;;5069289;28;20440;-89
2021/06/08 03:25:38;;;;;;;38.23;34.33;;;18.50;99.90;;;;;;5058352;28;20484;-89
2021/06/08 03:28:06;;;;;;;35.27;32.03;;;18.60;99.90;;;;;;5055675;28;20522;-88
2021/06/08 03:30:34;;;;;;;37.90;34.03;;;18.50;99.90;;;;;;5058417;28;20450;-89
2021/06/08 03:33:02;;;;;;;39.73;35.83;;;18.50;99.90;;;;;;5060597;28;20432;-89
2021/06/08 03:35:29;;;;;;;38.43;34.77;;;18.60;99.90;;;;;;5065440;28;20468;-89
2021/06/08 03:37:56;;;;;;;38.90;34.90;;;18.50;99.90;;;;;;5072635;28;20480;-90
2021/06/08 03:40:24;;;;;;;39.57;35.87;;;18.50;99.90;;;;;;5066156;28;20450;-89
2021/06/08 03:42:52;;;;;;;38.43;34.73;;;18.50;99.90;;;;;;5059354;28;20947;-89
2021/06/08 03:45:18;;;;;;;38.67;34.87;;;18.50;99.90;;;;;;5066809;28;20456;-90
2021/06/08 03:47:46;;;;;;;41.00;36.90;;;18.50;99.90;;;;;;5073993;28;20595;-89
2021/06/08 03:50:15;;;;;;;40.43;36.60;;;18.50;99.90;;;;;;5059488;28;20450;-90
2021/06/08 03:52:42;;;;;;;39.00;35.23;;;18.50;99.90;;;;;;5064641;28;20856;-90
2021/06/08 03:55:11;;;;;;;39.83;35.93;;;18.50;99.90;;;;;;5062523;28;20454;-90
2021/06/08 03:57:39;;;;;;;41.80;37.60;;;18.40;99.90;;;;;;5066415;28;20484;-90
2021/06/08 04:00:08;;;;;;;39.57;35.47;;;18.50;99.90;;;;;;5079058;28;20445;-91
2021/06/08 04:02:37;;;;;;;38.57;34.90;;;18.50;99.90;;;;;;5089122;28;20421;-90
2021/06/08 04:05:06;;;;;;;40.33;36.47;;;18.50;99.90;;;;;;5083201;28;21113;-90
2021/06/08 04:07:42;;;;;;;37.30;33.80;;;18.50;99.90;;;;;;5090796;28;20432;-90
2021/06/08 04:10:14;;;;;;;37.53;33.97;;;18.50;99.90;;;;;;5085682;28;20454;-88
2021/06/08 04:12:40;;;;;;;38.20;34.50;;;18.50;99.90;;;;;;5085227;28;20467;-90
2021/06/08 04:15:08;;;;;;;36.60;33.13;;;18.60;99.90;;;;;;5100646;28;20428;-89
2021/06/08 04:17:36;;;;;;;37.67;34.17;;;18.50;99.90;;;;;;5094342;28;20485;-89
2021/06/08 04:20:04;;;;;;;36.90;32.73;;;18.60;99.90;;;;;;5082236;28;20453;-90
2021/06/08 04:22:37;;;;;;;35.60;32.10;;;18.60;99.90;;;;;;5079714;28;20502;-90
2021/06/08 04:25:08;;;;;;;38.50;34.90;;;18.60;99.90;;;;;;5096347;28;20773;-89
2021/06/08 04:27:36;;;;;;;40.43;36.53;;;18.60;99.90;;;;;;5096281;28;20466;-88
2021/06/08 04:30:05;;;;;;;36.77;33.20;;;18.60;99.90;;;;;;5087074;28;20448;-90
2021/06/08 04:32:33;;;;;;;36.43;32.93;;;18.70;99.90;;;;;;5090953;28;20439;-88
2021/06/08 04:34:59;;;;;;;38.63;34.70;;;18.70;99.90;;;;;;5082859;28;20790;-89
2021/06/08 04:37:25;;;;;;;37.30;33.63;;;18.70;99.90;;;;;;5091616;28;20564;-90
2021/06/08 04:39:52;;;;;;;37.07;33.57;;;18.80;99.90;;;;;;5086126;28;20449;-88
2021/06/08 04:42:20;;;;;;;35.93;32.43;;;18.70;99.90;;;;;;5096639;28;20555;-88
2021/06/08 04:44:48;;;;;;;37.60;33.77;;;18.80;99.90;;;;;;5089797;28;20812;-90
2021/06/08 04:47:16;;;;;;;38.67;34.83;;;18.80;99.90;;;;;;5073409;28;20439;-90
2021/06/08 04:49:43;;;;;;;36.60;33.10;;;18.90;99.90;;;;;;5075026;28;20434;-90
2021/06/08 04:52:10;;;;;;;36.77;33.13;;;18.90;99.90;;;;;;5079354;28;20452;-89
2021/06/08 04:54:37;;;;;;;39.13;35.37;;;18.90;99.90;;;;;;5086527;28;20459;-88
2021/06/08 04:57:05;;;;;;;38.00;34.50;;;18.90;99.90;;;;;;5079786;28;20482;-89
2021/06/08 04:59:37;;;;;;;37.00;33.60;;;19.00;99.90;;;;;;5085322;28;20473;-89
2021/06/08 05:02:09;;;;;;;38.27;34.73;;;19.00;99.90;;;;;;5093337;28;20449;-90
2021/06/08 05:04:39;;;;;;;36.30;32.87;;;19.10;99.90;;;;;;5082357;28;20453;-89
2021/06/08 05:07:08;;;;;;;34.50;31.43;;;19.10;99.90;;;;;;5085099;28;20532;-89
2021/06/08 05:09:39;;;;;;;36.17;32.73;;;19.20;99.90;;;;;;5084357;28;20462;-88
2021/06/08 05:12:10;;;;;;;35.90;32.50;;;19.20;99.90;;;;;;5069637;28;20439;-89
2021/06/08 05:14:39;;;;;;;36.70;32.90;;;19.20;99.90;;;;;;5097956;28;20416;-86
2021/06/08 05:17:06;;;;;;;35.00;31.50;;;19.30;99.90;;;;;;5098252;28;20472;-90
2021/06/08 05:19:33;;;;;;;33.93;30.57;;;19.30;99.90;;;;;;5102453;28;20471;-88
2021/06/08 05:22:00;;;;;;;34.30;30.97;;;19.30;99.90;;;;;;5100003;28;20438;-84
2021/06/08 05:24:27;;;;;;;35.77;32.27;;;19.30;99.90;;;;;;5116456;28;20442;-85
2021/06/08 05:26:53;;;;;;;37.13;33.73;;;19.40;99.90;;;;;;5091571;28;20453;-83
2021/06/08 05:29:21;;;;;;;35.10;31.93;;;19.50;99.90;;;;;;5077608;28;20469;-86
2021/06/08 05:31:49;;;;;;;37.67;34.27;;;19.50;99.90;;;;;;5082565;28;20469;-84
2021/06/08 05:34:20;;;;;;;37.40;33.67;;;19.50;99.90;;;;;;5085963;28;20421;-84
2021/06/08 05:36:47;;;;;;;34.30;31.20;;;19.50;99.90;;;;;;5079194;28;20458;-85
2021/06/08 05:39:13;;;;;;;35.37;32.17;;;19.50;99.90;;;;;;5083398;28;20437;-84
2021/06/08 05:41:39;;;;;;;36.33;33.03;;;19.50;99.90;;;;;;5077087;28;20455;-85
2021/06/08 05:44:06;;;;;;;32.47;29.40;;;19.50;99.90;;;;;;5080603;28;20430;-84
2021/06/08 05:46:33;;;;;;;34.90;31.47;;;19.50;99.90;;;;;;5078603;28;20496;-85
2021/06/08 05:49:01;;;;;;;33.27;30.33;;;19.50;99.90;;;;;;5079856;28;20445;-83
2021/06/08 05:51:30;;;;;;;34.37;31.17;;;19.50;99.90;;;;;;5084341;28;20424;-83
2021/06/08 05:53:57;;;;;;;37.57;33.80;;;19.50;99.90;;;;;;5082253;28;20441;-85
2021/06/08 05:56:25;;;;;;;34.90;31.70;;;19.40;99.90;;;;;;5075662;28;20481;-85
2021/06/08 05:58:53;;;;;;;32.93;29.93;;;19.40;99.90;;;;;;5075337;28;20481;-84
2021/06/08 06:01:21;;;;;;;33.57;30.37;;;19.30;99.90;;;;;;5070940;28;20446;-85
2021/06/08 06:03:48;;;;;;;31.73;28.70;;;19.30;99.90;;;;;;5079581;28;20484;-84
2021/06/08 06:06:16;;;;;;;32.53;29.67;;;19.30;99.90;;;;;;5063057;28;20450;-84
2021/06/08 06:08:42;;;;;;;32.20;29.20;;;19.40;99.90;;;;;;5071190;28;20473;-85
2021/06/08 06:11:09;;;;;;;31.27;28.37;;;19.40;99.90;;;;;;5073308;28;20500;-83
2021/06/08 06:13:41;;;;;;;32.70;29.53;;;19.50;99.90;;;;;;5066144;28;20443;-85
2021/06/08 06:16:10;;;;;;;32.70;29.80;;;19.50;99.90;;;;;;5067575;28;20454;-85
2021/06/08 06:18:39;;;;;;;32.00;29.20;;;19.60;99.90;;;;;;5087840;28;20444;-84
2021/06/08 06:21:06;;;;;;;29.13;26.73;;;19.60;99.90;;;;;;5079606;28;20441;-85
2021/06/08 06:23:34;;;;;;;31.27;28.37;;;19.60;99.90;;;;;;5070649;28;20447;-84
2021/06/08 06:26:01;;;;;;;31.77;28.87;;;19.70;99.90;;;;;;5071080;28;20442;-85
2021/06/08 06:28:27;;;;;;;32.63;29.73;;;19.70;99.90;;;;;;5073149;28;20480;-85
2021/06/08 06:30:55;;;;;;;31.07;28.30;;;19.70;99.90;;;;;;5051511;28;20443;-83
2021/06/08 06:33:22;;;;;;;30.57;27.77;;;19.70;99.90;;;;;;5062141;28;20451;-86
2021/06/08 06:35:49;;;;;;;32.67;29.67;;;19.70;99.90;;;;;;5069422;28;20468;-86
2021/06/08 06:38:17;;;;;;;32.93;29.97;;;19.80;99.90;;;;;;5062435;28;20499;-85
2021/06/08 06:40:46;;;;;;;30.17;27.43;;;19.80;99.90;;;;;;5061510;28;20447;-84
2021/06/08 06:43:17;;;;;;;30.70;27.87;;;19.80;99.90;;;;;;5061453;28;20446;-84
2021/06/08 06:45:44;;;;;;;29.70;26.90;;;19.80;99.90;;;;;;5075101;28;20439;-84
2021/06/08 06:48:15;;;;;;;30.77;28.07;;;19.80;99.90;;;;;;5051886;28;20479;-84
2021/06/08 06:50:42;;;;;;;31.30;28.30;;;19.80;99.90;;;;;;5057544;28;20438;-84
2021/06/08 06:53:10;;;;;;;31.17;28.43;;;19.80;99.90;;;;;;5067656;28;20452;-86
2021/06/08 06:55:38;;;;;;;30.57;27.87;;;19.90;99.90;;;;;;5065358;28;20430;-85
2021/06/08 06:58:07;;;;;;;32.20;29.17;;;19.90;99.90;;;;;;5063422;28;20483;-85
2021/06/08 07:00:33;;;;;;;34.40;31.30;;;19.90;99.90;;;;;;5062946;28;20443;-85
2021/06/08 07:03:01;;;;;;;33.17;30.07;;;19.90;99.90;;;;;;5054024;28;20448;-84
2021/06/08 07:05:30;;;;;;;32.53;29.63;;;20.00;99.90;;;;;;5057733;28;20444;-85
2021/06/08 07:07:57;;;;;;;32.67;29.77;;;20.00;99.90;;;;;;5075263;28;20486;-85
2021/06/08 07:10:26;;;;;;;34.57;30.93;;;20.00;99.90;;;;;;5066402;28;20446;-86
2021/06/08 07:12:54;;;;;;;33.30;30.23;;;20.10;99.90;;;;;;5066259;28;20455;-84
2021/06/08 07:15:26;;;;;;;33.13;29.70;;;20.00;99.90;;;;;;5067126;28;20444;-84
2021/06/08 07:17:53;;;;;;;33.13;29.83;;;20.10;99.90;;;;;;5067210;28;21062;-85
2021/06/08 07:20:19;;;;;;;35.10;31.57;;;20.10;99.90;;;;;;5064790;28;20445;-85
2021/06/08 07:22:49;;;;;;;31.93;29.13;;;20.20;99.90;;;;;;5081189;28;20424;-85
2021/06/08 07:25:18;;;;;;;35.87;32.57;;;20.30;99.90;;;;;;5076162;28;20443;-85
2021/06/08 07:27:44;;;;;;;34.50;31.10;;;20.30;99.90;;;;;;5087997;28;20470;-85
2021/06/08 07:30:12;;;;;;;33.13;30.43;;;20.30;99.90;;;;;;5058839;28;20505;-85
2021/06/08 07:32:49;;;;;;;34.40;31.30;;;20.40;99.90;;;;;;5059028;28;20450;-85
2021/06/08 07:35:21;;;;;;;33.97;30.50;;;20.40;99.90;;;;;;5067221;28;20451;-85
2021/06/08 07:37:50;;;;;;;33.30;30.00;;;20.50;99.90;;;;;;5066549;28;20479;-84
2021/06/08 07:40:21;;;;;;;33.37;30.50;;;20.60;99.90;;;;;;5068469;28;20436;-86
2021/06/08 07:42:51;;;;;;;33.17;30.10;;;20.60;99.90;;;;;;5089355;28;20427;-85
2021/06/08 07:45:21;;;;;;;34.63;31.43;;;20.80;99.90;;;;;;5082153;28;20424;-84
2021/06/08 07:47:51;;;;;;;33.77;30.73;;;20.90;99.90;;;;;;5094888;28;20443;-85
2021/06/08 07:50:20;;;;;;;35.23;31.73;;;21.00;99.90;;;;;;5083039;28;20440;-85
2021/06/08 07:52:46;;;;;;;33.47;30.53;;;21.10;99.90;;;;;;5068995;28;20498;-85
2021/06/08 07:55:13;;;;;;;35.17;31.77;;;21.10;99.90;;;;;;5079079;28;20440;-84
2021/06/08 07:57:40;;;;;;;32.67;29.67;;;21.00;99.90;;;;;;5078227;28;20981;-85
2021/06/08 08:00:08;;;;;;;34.47;31.37;;;20.90;99.90;;;;;;5076253;28;20440;-85
2021/06/08 08:02:35;;;;;;;33.63;30.47;;;20.80;99.90;;;;;;5071204;28;20526;-85
2021/06/08 08:05:08;;;;;;;35.07;32.03;;;20.70;99.90;;;;;;5067906;28;20444;-85
2021/06/08 08:07:35;;;;;;;37.47;34.07;;;20.70;99.90;;;;;;5070336;28;20439;-84
2021/06/08 08:10:01;;;;;;;38.87;35.17;;;20.60;99.90;;;;;;5069050;28;20444;-84
2021/06/08 08:12:28;;;;;;;35.73;32.17;;;20.50;99.90;;;;;;5065878;28;20443;-84
2021/06/08 08:14:54;;;;;;;36.07;32.40;;;20.50;99.90;;;;;;5065440;28;20436;-85
2021/06/08 08:17:24;;;;;;;40.03;36.33;;;20.50;99.90;;;;;;5094506;28;20466;-85
2021/06/08 08:19:51;;;;;;;35.70;32.30;;;20.50;99.90;;;;;;5078810;28;20526;-85
2021/06/08 08:22:19;;;;;;;38.93;35.37;;;20.60;99.90;;;;;;5069196;28;20451;-83
2021/06/08 08:24:45;;;;;;;38.03;34.63;;;20.70;99.90;;;;;;5069508;28;20445;-84
2021/06/08 08:27:13;;;;;;;38.53;34.93;;;20.80;99.90;;;;;;5074576;28;20447;-85
2021/06/08 08:29:41;;;;;;;36.37;33.17;;;20.90;99.90;;;;;;5064935;28;20840;-85
2021/06/08 08:32:08;;;;;;;37.97;34.50;;;21.10;99.90;;;;;;5067235;28;20442;-84
2021/06/08 08:34:34;;;;;;;39.07;35.67;;;21.30;99.90;;;;;;5063515;28;20499;-83
2021/06/08 08:37:02;;;;;;;38.80;34.90;;;21.40;99.90;;;;;;5064511;28;20486;-84
2021/06/08 08:39:29;;;;;;;39.87;36.23;;;21.50;99.90;;;;;;5074640;28;20892;-84
2021/06/08 08:41:56;;;;;;;41.20;37.33;;;21.30;99.90;;;;;;5071922;28;20448;-84
2021/06/08 08:44:23;;;;;;;37.73;34.30;;;21.20;99.90;;;;;;5082206;28;20436;-84
2021/06/08 08:46:49;;;;;;;38.67;35.13;;;21.10;99.90;;;;;;5083059;28;20442;-84
2021/06/08 08:49:15;;;;;;;37.77;33.97;;;21.10;99.90;;;;;;5077216;28;20456;-85
2021/06/08 08:51:43;;;;;;;37.73;34.23;;;21.20;99.90;;;;;;5071345;28;20467;-84
2021/06/08 08:54:12;;;;;;;39.77;36.07;;;21.20;99.90;;;;;;5079181;28;20435;-84
2021/06/08 08:56:41;;;;;;;38.03;34.60;;;21.20;99.90;;;;;;5077837;28;20475;-84
2021/06/08 08:59:09;;;;;;;39.20;35.80;;;21.30;99.90;;;;;;5066439;28;20540;-86
2021/06/08 09:01:37;;;;;;;40.97;37.30;;;21.50;99.90;;;;;;5067328;28;20471;-84
2021/06/08 09:04:06;;;;;;;41.47;37.47;;;21.60;99.90;;;;;;5063232;28;20436;-84
2021/06/08 09:06:32;;;;;;;40.80;36.90;;;21.60;99.90;;;;;;5063191;28;20466;-85
2021/06/08 09:08:59;;;;;;;38.43;34.87;;;21.70;99.90;;;;;;5066408;28;20464;-86
2021/06/08 09:11:26;;;;;;;38.90;35.27;;;21.90;99.90;;;;;;5073832;28;20429;-86
2021/06/08 09:13:58;;;;;;;38.47;34.83;;;21.90;99.90;;;;;;5070550;28;20495;-87
2021/06/08 09:16:25;;;;;;;36.83;33.83;;;22.00;99.90;;;;;;5071963;28;20499;-87
2021/06/08 09:32:15;;;;;;;38.33;34.70;;;22.60;99.90;;;;;;5026121;28;20465;-87
2021/06/08 09:34:44;;;;;;;40.87;37.20;;;22.90;99.90;;;;;;5035713;28;20443;-89
2021/06/08 09:37:11;;;;;;;38.20;34.97;;;23.20;99.90;;;;;;5121646;28;20525;-89
2021/06/08 09:39:46;;;;;;;36.87;33.50;;;23.60;99.90;;;;;;5115328;28;20980;-89
2021/06/08 09:42:22;;;;;;;35.43;32.53;;;23.90;99.90;;;;;;5113481;28;20502;-89
2021/06/08 09:44:48;;;;;;;36.83;33.63;;;24.30;99.90;;;;;;5107937;28;20980;-89
2021/06/08 09:47:28;;;;;;;35.30;32.37;;;24.50;99.90;;;;;;5108424;28;20434;-89
2021/06/08 09:49:54;;;;;;;40.20;36.80;;;24.80;99.90;;;;;;5106745;28;20951;-89
2021/06/08 09:52:21;;;;;;;36.90;33.80;;;25.10;99.90;;;;;;5113339;28;20456;-88
2021/06/08 09:54:51;;;;;;;37.57;34.23;;;25.20;99.90;;;;;;5120074;28;20442;-89
2021/06/08 09:57:22;;;;;;;36.70;33.67;;;25.80;99.90;;;;;;5115468;28;20466;-90
2021/06/08 09:59:52;;;;;;;37.17;34.07;;;26.10;99.80;;;;;;5111650;28;20525;-89
2021/06/08 10:02:35;;;;;;;35.60;32.43;;;25.80;99.20;;;;;;5108726;28;20438;-89
2021/06/08 10:05:29;;;;;;;36.00;33.07;;;25.90;99.30;;;;;;5102979;28;20932;-88
2021/06/08 10:08:08;;;;;;;37.67;34.37;;;26.10;97.80;;;;;;5089105;28;20442;-88
2021/06/08 10:10:38;;;;;;;36.77;33.80;;;26.00;97.80;;;;;;5111219;28;20438;-89
2021/06/08 10:13:07;;;;;;;39.07;35.63;;;26.30;97.70;;;;;;5109805;28;20468;-89
2021/06/08 10:15:35;;;;;;;35.67;32.67;;;26.90;96.90;;;;;;5104884;28;20430;-89
2021/06/08 10:18:05;;;;;;;35.43;32.33;;;27.20;95.90;;;;;;5104324;28;20485;-89
2021/06/08 10:20:34;;;;;;;33.57;30.90;;;27.30;95.70;;;;;;5118419;28;20522;-84
2021/06/08 10:23:16;;;;;;;32.67;30.10;;;27.10;95.00;;;;;;5110204;28;20426;-84
2021/06/08 10:25:43;;;;;;;36.17;33.10;;;27.10;95.30;;;;;;5102156;28;22023;-86
2021/06/08 10:28:11;;;;;;;35.43;32.47;;;26.80;95.30;;;;;;5107619;28;20461;-84
2021/06/08 10:30:38;;;;;;;36.77;33.90;;;26.60;95.00;;;;;;5103497;28;20919;-83
2021/06/08 10:33:05;;;;;;;35.17;32.37;;;26.40;95.50;;;;;;5104774;28;20438;-84
2021/06/08 10:35:32;;;;;;;33.27;30.50;;;26.30;95.60;;;;;;5112807;28;20448;-83
2021/06/08 10:37:58;;;;;;;34.00;31.30;;;26.30;95.80;;;;;;5119604;28;20488;-84
2021/06/08 10:40:25;;;;;;;34.90;31.93;;;26.60;95.70;;;;;;5107451;28;20442;-83
2021/06/08 10:42:51;;;;;;;32.63;30.13;;;27.10;95.00;;;;;;5116668;28;20445;-83
2021/06/08 10:45:17;;;;;;;31.47;28.97;;;27.40;93.90;;;;;;5098956;28;21019;-83
2021/06/08 10:47:46;;;;;;;33.17;30.57;;;28.00;93.40;;;;;;5108691;22;20487;-88
2021/06/08 10:50:28;;;;;;;33.13;30.37;;;28.20;93.00;;;;;;5029992;28;20429;-88
2021/06/08 10:52:57;;;;;;;32.30;29.60;;;28.40;92.10;;;;;;5042016;28;20423;-88
2021/06/08 10:55:29;;;;;;;33.30;30.60;;;28.50;91.90;;;;;;5035609;28;20445;-86
2021/06/08 10:57:55;;;;;;;33.37;30.63;;;28.80;91.70;;;;;;5039571;28;20485;-86
2021/06/08 11:00:52;;;;;;;30.27;27.97;;;29.50;90.70;;;;;;5029679;28;20433;-86
2021/06/08 11:03:52;;;;;;;31.97;29.47;;;29.60;89.40;;;;;;4990877;28;20444;-86
2021/06/08 11:06:45;;;;;;;30.83;28.40;;;29.20;89.30;;;;;;5038542;28;20437;-87
2021/06/08 11:09:13;;;;;;;33.43;30.83;;;28.80;90.40;;;;;;5033397;28;20532;-86
2021/06/08 11:11:44;;;;;;;33.43;30.57;;;28.50;90.90;;;;;;5028224;28;20497;-86
2021/06/08 11:14:45;;;;;;;31.33;28.43;;;28.40;90.60;;;;;;5033820;28;20814;-86
2021/06/08 11:17:13;;;;;;;35.23;32.33;;;28.10;91.20;;;;;;5040108;28;20490;-87
2021/06/08 11:19:49;;;;;;;33.07;30.57;;;27.80;91.30;;;;;;5043278;28;20449;-87
2021/06/08 11:22:19;;;;;;;31.00;28.67;;;27.60;91.50;;;;;;5041947;28;20442;-87
2021/06/08 11:24:46;;;;;;;31.80;29.30;;;27.20;92.40;;;;;;5048031;28;20456;-86
2021/06/08 11:27:13;;;;;;;32.17;29.50;;;26.90;93.10;;;;;;5046813;28;20464;-87
2021/06/08 11:29:49;;;;;;;34.60;31.90;;;26.70;93.50;;;;;;5041853;28;20438;-87
2021/06/08 11:32:43;;;;;;;33.90;31.30;;;26.70;93.50;;;;;;5034545;28;20456;-85
2021/06/08 11:35:15;;;;;;;33.23;30.63;;;26.70;93.30;;;;;;5040833;28;20978;-84
2021/06/08 11:38:01;;;;;;;32.80;30.17;;;26.70;93.60;;;;;;5041307;28;20481;-85
2021/06/08 11:40:59;;;;;;;32.80;30.13;;;26.80;93.30;;;;;;5038991;28;20450;-85
2021/06/08 11:43:46;;;;;;;32.70;30.23;;;27.10;93.10;;;;;;5036078;28;20440;-86
2021/06/08 11:46:15;;;;;;;31.97;29.47;;;27.50;92.60;;;;;;5036575;28;21073;-86
2021/06/08 11:48:44;;;;;;;32.40;29.80;;;27.40;92.20;;;;;;5036846;28;20476;-86
2021/06/08 11:51:34;;;;;;;36.07;32.97;;;27.50;92.10;;;;;;5032391;28;20455;-86
2021/06/08 11:54:08;;;;;;;33.80;31.17;;;27.50;92.00;;;;;;5028853;28;20437;-86
2021/06/08 11:56:55;;;;;;;32.03;29.23;;;27.60;91.90;;;;;;5055768;28;20437;-83
2021/06/08 11:59:23;;;;;;;31.70;29.13;;;27.40;92.30;;;;;;5042488;28;20870;-85
2021/06/08 12:01:53;;;;;;;31.37;28.77;;;27.70;92.00;;;;;;5037158;28;20446;-85
2021/06/08 12:04:20;;;;;;;32.10;29.00;;;28.10;91.80;;;;;;5035669;28;20450;-85
2021/06/08 12:07:14;;;;;;;32.90;30.13;;;28.40;91.00;;;;;;5027662;28;20572;-83
2021/06/08 12:09:46;;;;;;;32.07;29.50;;;28.70;90.80;;;;;;5030479;28;20434;-87
2021/06/08 12:12:14;;;;;;;32.70;29.90;;;29.10;88.70;;;;;;5028473;28;20446;-84
2021/06/08 12:14:51;;;;;;;31.67;29.07;;;29.30;88.00;;;;;;5050433;28;20790;-85
2021/06/08 12:17:18;;;;;;;29.97;27.67;;;29.60;87.00;;;;;;5029907;28;20847;-86
2021/06/08 12:19:44;;;;;;;31.03;28.63;;;30.10;86.10;;;;;;5023988;28;20453;-85
2021/06/08 12:22:25;;;;;;;30.17;27.77;;;29.90;84.50;;;;;;5022493;28;20450;-85
2021/06/08 12:24:58;;;;;;;29.83;27.60;;;30.30;83.70;;;;;;5019006;28;20450;-85
2021/06/08 12:27:34;;;;;;;29.67;27.37;;;30.50;83.30;;;;;;5027208;28;21084;-85
2021/06/08 12:30:01;;;;;;;31.57;29.10;;;30.20;82.90;;;;;;5027963;28;20506;-87
2021/06/08 12:32:27;;;;;;;29.93;27.67;;;29.20;83.90;;;;;;5028093;28;20544;-87
2021/06/08 12:34:54;;;;;;;29.53;26.97;;;29.80;84.80;;;;;;5026787;28;20449;-87
2021/06/08 12:37:24;;;;;;;29.50;27.20;;;30.80;82.20;;;;;;5030951;28;20492;-88
2021/06/08 12:39:57;;;;;;;28.80;26.70;;;30.20;80.80;;;;;;5040585;28;20445;-87
2021/06/08 12:42:24;;;;;;;28.07;25.97;;;29.90;82.50;;;;;;5032393;28;20444;-87
2021/06/08 12:44:51;;;;;;;29.07;26.97;;;29.90;82.30;;;;;;5048576;28;20510;-87
2021/06/08 12:47:19;;;;;;;25.50;23.70;;;30.10;82.80;;;;;;5044029;28;20484;-87
2021/06/08 12:49:48;;;;;;;24.33;22.57;;;30.10;82.40;;;;;;5039816;28;20471;-87
2021/06/08 12:52:17;;;;;;;23.47;21.77;;;30.90;80.40;;;;;;5039387;28;20453;-88